Heathsville, Illinois
Current Conditions -  °F | °C
As of 11:35 AM on Thursday 23 Oct 2014 (Local Time) from KRSV Reporting Station
Clear Clear  
Wind Chill: 14°   Ceiling: Unl
Heat Index: 14°   Visibility: 10mi
Dew Point:   Wind: 5mph
Humidity: 62%   Direction: 190°S
Pressure: 30.25"   Gusts: NA
Location:  38.904°N, 87.665°W
Report Text: KRSV 231635Z AUTO 19004KT 10SM CLR 14/07 A3025 RMK AO2 T01420070
Loading
Personal Weather Stations






























Interactive Weather Map
Tropical Storm Tracking
New forecast layout! Learn more

10-Day Weather Forecast

Advertisements
Track Severe Weather on mobile